Zumaia, Spain
Current Conditions -  °F | °C
As of 5:00 PM on Thursday 23 Oct 2014 (Local Time) from LESO Reporting Station
Clear Clear  
Wind Chill: 68°   Ceiling: Unl
Heat Index: 68°   Visibility: 6mi
Dew Point: 54°   Wind: 3mph
Humidity: 60%   Direction: 360°N
Pressure: 30.21"   Gusts: NA
Location:  43.29°N, 2.25°W
Report Text: LESO 231500Z 36003KT 320V030 CAVOK 20/12 Q1023
Loading
Personal Weather Stations






























Interactive Weather Map
Tropical Storm Tracking
New forecast layout! Learn more

10-Day Weather Forecast

Advertisements
Track Severe Weather on mobile